Christian Reinauer — WDA6472 — position and weather

sailwx.info

Track history (hours):
 
Tides and Currents Weather Stations Pressure Air Temp Water Temp Dewpoint Dewpoint Depression Visibility Wind Speed Wind Dir Waves Ship Positions

Christian Reinauer

Owner: REINAUER TRANSPORTATION CO LLC, STATEN ISLAND, NY. More information available from US FCC via Universal Licensing System and Coast Guard Vessel Documentation Center.

Last reported at 2016-May-23 09:27 UTC. Time now 2016-May-25 09:14 UTC.
Position N 29°38' W 093°49'.

Length 170 m; draft 6.5 m.

Type: Tanker. MMSI: 366832740.

Date/timePositionNaut miles runAvg speedWind from/ knotsBaromVisibWave heightAir tempDewpointWater temp
2016-May-23 09:27N 29°38' W 093°49'10 5.4
2016-May-23 07:32N 29°31' W 093°41'4 4.5
2016-May-23 06:33N 29°27' W 093°39'  
2016-May-19 20:16N 25°38' W 080°02'5 7.0
2016-May-19 19:33N 25°43' W 080°02'8 7.6
2016-May-19 18:33N 25°50' W 080°02'7 6.9
2016-May-19 17:33N 25°57' W 080°03'8 8.5
2016-May-19 16:33N 26°05' W 080°05'2 2.2
2016-May-19 15:32N 26°05' W 080°07'0 0.0
2016-May-19 14:32N 26°05' W 080°07'0 0.0
2016-May-19 13:32N 26°05' W 080°07'0 0.0
2016-May-19 12:31N 26°05' W 080°07'0 0.0
2016-May-19 11:31N 26°05' W 080°07'0 0.0
2016-May-19 10:31N 26°05' W 080°07'0 0.0
2016-May-19 09:31N 26°05' W 080°07'0 0.0
2016-May-19 08:31N 26°05' W 080°07'0 0.0
2016-May-19 07:22N 26°05' W 080°07'0 0.0
2016-May-19 06:31N 26°05' W 080°07'0 0.0
2016-May-19 04:33N 26°05' W 080°07'0 0.4
2016-May-19 03:33N 26°06' W 080°07'3 2.7
2016-May-19 02:33N 26°07' W 080°04'0 0.1
2016-May-19 01:30N 26°07' W 080°05'0 0.0
2016-May-19 00:30N 26°07' W 080°05'0 0.0
2016-May-18 23:30N 26°07' W 080°05'0 0.0
2016-May-18 22:30N 26°07' W 080°05'0 0.0
2016-May-18 21:33N 26°07' W 080°05'0 0.0
2016-May-18 20:33N 26°07' W 080°05'0 0.0
2016-May-18 19:33N 26°07' W 080°05'0 0.0
2016-May-18 18:33N 26°07' W 080°05'0 0.0
2016-May-18 17:32N 26°07' W 080°05'0 0.0
2016-May-18 16:32N 26°07' W 080°05'0 0.0
2016-May-18 15:32N 26°07' W 080°05'0 0.0
2016-May-18 14:32N 26°07' W 080°05'0 0.0
2016-May-18 13:32N 26°07' W 080°05'0 0.0
2016-May-18 12:32N 26°07' W 080°05'0 0.0
2016-May-18 11:32N 26°07' W 080°05'0 0.0
2016-May-18 10:32N 26°07' W 080°04'0 0.0
2016-May-18 09:32N 26°07' W 080°05'0 0.0
2016-May-18 08:20N 26°07' W 080°05'0 0.0
2016-May-18 07:23N 26°07' W 080°05'0 0.0
2016-May-18 06:26N 26°07' W 080°05'0 0.0
2016-May-18 05:26N 26°07' W 080°05'0 0.0
2016-May-18 04:26N 26°07' W 080°05'0 0.0
2016-May-18 03:26N 26°07' W 080°05'0 0.0
2016-May-18 02:26N 26°07' W 080°05'0 0.0
2016-May-18 01:29N 26°07' W 080°05'0 0.0
2016-May-18 00:29N 26°07' W 080°05'0 0.0
2016-May-17 23:26N 26°07' W 080°05'0 0.0
2016-May-17 22:29N 26°07' W 080°05'0 0.0
2016-May-17 21:29N 26°07' W 080°05'0 0.0
2016-May-17 20:32N 26°07' W 080°05'0 0.0
2016-May-17 19:32N 26°07' W 080°05'0 0.0
2016-May-17 18:32N 26°07' W 080°05'0 0.0
2016-May-17 17:32N 26°07' W 080°05'0 0.0
2016-May-17 16:32N 26°07' W 080°05'0 0.0
2016-May-17 15:32N 26°07' W 080°05'0 0.4
2016-May-17 14:34N 26°07' W 080°04'1010.4
2016-May-17 13:33N 25°57' W 080°02'1615.8
2016-May-17 12:33N 25°41' W 080°01'167 6.7
2016-May-16 11:33N 25°50' W 083°06'9411.6
2016-May-16 03:25N 27°24' W 083°01'25 8.8
2016-May-16 00:33N 27°38' W 082°37'8 0.4
2016-May-15 01:05N 27°45' W 082°32'610.6
2016-May-15 00:33N 27°41' W 082°35'  
Track history (hours):
 
Tides and Currents Weather Stations Pressure Air Temp Water Temp Dewpoint Dewpoint Depression Visibility Wind Speed Wind Dir Waves Ship Positions

Christian Reinauer

Owner: REINAUER TRANSPORTATION CO LLC, STATEN ISLAND, NY. More information available from US FCC via Universal Licensing System and Coast Guard Vessel Documentation Center.

Last reported at 2016-May-23 09:27 UTC. Time now 2016-May-25 09:14 UTC.
Position N 29°38' W 093°49'.

Length 170 m; draft 6.5 m.

Type: Tanker. MMSI: 366832740.

Date/timePositionNaut miles runAvg speedWind from/ knotsBaromVisibWave heightAir tempDewpointWater temp
2016-May-23 09:27N 29°38' W 093°49'10 5.4
2016-May-23 07:32N 29°31' W 093°41'4 4.5
2016-May-23 06:33N 29°27' W 093°39'  
2016-May-19 20:16N 25°38' W 080°02'5 7.0
2016-May-19 19:33N 25°43' W 080°02'8 7.6
2016-May-19 18:33N 25°50' W 080°02'7 6.9
2016-May-19 17:33N 25°57' W 080°03'8 8.5
2016-May-19 16:33N 26°05' W 080°05'2 2.2
2016-May-19 15:32N 26°05' W 080°07'0 0.0
2016-May-19 14:32N 26°05' W 080°07'0 0.0
2016-May-19 13:32N 26°05' W 080°07'0 0.0
2016-May-19 12:31N 26°05' W 080°07'0 0.0
2016-May-19 11:31N 26°05' W 080°07'0 0.0
2016-May-19 10:31N 26°05' W 080°07'0 0.0
2016-May-19 09:31N 26°05' W 080°07'0 0.0
2016-May-19 08:31N 26°05' W 080°07'0 0.0
2016-May-19 07:22N 26°05' W 080°07'0 0.0
2016-May-19 06:31N 26°05' W 080°07'0 0.0
2016-May-19 04:33N 26°05' W 080°07'0 0.4
2016-May-19 03:33N 26°06' W 080°07'3 2.7
2016-May-19 02:33N 26°07' W 080°04'0 0.1
2016-May-19 01:30N 26°07' W 080°05'0 0.0
2016-May-19 00:30N 26°07' W 080°05'0 0.0
2016-May-18 23:30N 26°07' W 080°05'0 0.0
2016-May-18 22:30N 26°07' W 080°05'0 0.0
2016-May-18 21:33N 26°07' W 080°05'0 0.0
2016-May-18 20:33N 26°07' W 080°05'0 0.0
2016-May-18 19:33N 26°07' W 080°05'0 0.0
2016-May-18 18:33N 26°07' W 080°05'0 0.0
2016-May-18 17:32N 26°07' W 080°05'0 0.0
2016-May-18 16:32N 26°07' W 080°05'0 0.0
2016-May-18 15:32N 26°07' W 080°05'0 0.0
2016-May-18 14:32N 26°07' W 080°05'0 0.0
2016-May-18 13:32N 26°07' W 080°05'0 0.0
2016-May-18 12:32N 26°07' W 080°05'0 0.0
2016-May-18 11:32N 26°07' W 080°05'0 0.0
2016-May-18 10:32N 26°07' W 080°04'0 0.0
2016-May-18 09:32N 26°07' W 080°05'0 0.0
2016-May-18 08:20N 26°07' W 080°05'0 0.0
2016-May-18 07:23N 26°07' W 080°05'0 0.0
2016-May-18 06:26N 26°07' W 080°05'0 0.0
2016-May-18 05:26N 26°07' W 080°05'0 0.0
2016-May-18 04:26N 26°07' W 080°05'0 0.0
2016-May-18 03:26N 26°07' W 080°05'0 0.0
2016-May-18 02:26N 26°07' W 080°05'0 0.0
2016-May-18 01:29N 26°07' W 080°05'0 0.0
2016-May-18 00:29N 26°07' W 080°05'0 0.0
2016-May-17 23:26N 26°07' W 080°05'0 0.0
2016-May-17 22:29N 26°07' W 080°05'0 0.0
2016-May-17 21:29N 26°07' W 080°05'0 0.0
2016-May-17 20:32N 26°07' W 080°05'0 0.0
2016-May-17 19:32N 26°07' W 080°05'0 0.0
2016-May-17 18:32N 26°07' W 080°05'0 0.0
2016-May-17 17:32N 26°07' W 080°05'0 0.0
2016-May-17 16:32N 26°07' W 080°05'0 0.0
2016-May-17 15:32N 26°07' W 080°05'0 0.4
2016-May-17 14:34N 26°07' W 080°04'1010.4
2016-May-17 13:33N 25°57' W 080°02'1615.8
2016-May-17 12:33N 25°41' W 080°01'167 6.7
2016-May-16 11:33N 25°50' W 083°06'9411.6
2016-May-16 03:25N 27°24' W 083°01'25 8.8
2016-May-16 00:33N 27°38' W 082°37'8 0.4
2016-May-15 01:05N 27°45' W 082°32'610.6
2016-May-15 00:33N 27°41' W 082°35'  

Dump ship's entire track history